Time;durP1;ratioP1;P1;durP2;ratioP2;P2;SDS_P1;SDS_P2;PMS_P1;PMS_P2;Temp;Humidity;BMP_temperature;BMP_pressure;BME280_temperature;BME280_humidity;BME280_pressure;Samples;Min_cycle;Max_cycle;Signal;HPM_P1;HPM_P2
2023/02/02 00:02:35;;;;;;;6.60;2.90;;;;;;;5.01;69.46;98086.33;232050;1192;139374;-72
2023/02/02 00:07:38;;;;;;;7.00;2.90;;;;;;;5.08;69.31;98087.89;231470;1193;138634;-72
2023/02/02 00:12:42;;;;;;;5.20;2.90;;;;;;;5.04;69.11;98082.99;231577;1193;139309;-72
2023/02/02 00:17:45;;;;;;;6.90;2.80;;;;;;;4.95;69.47;98085.77;230125;1193;139843;-70
2023/02/02 00:22:49;;;;;;;5.00;2.30;;;;;;;4.91;69.81;98081.93;234593;1192;138532;-70
2023/02/02 00:27:52;;;;;;;5.50;2.70;;;;;;;4.86;69.84;98084.70;230548;1196;138743;-70
2023/02/02 00:32:57;;;;;;;6.00;2.40;;;;;;;4.80;69.83;98084.67;234344;1195;138628;-71
2023/02/02 00:38:00;;;;;;;4.30;1.80;;;;;;;4.65;69.97;98090.36;235389;1193;140125;-72
2023/02/02 00:43:04;;;;;;;4.70;2.00;;;;;;;4.50;70.37;98099.27;233105;1193;138882;-72
2023/02/02 00:48:09;;;;;;;4.90;2.10;;;;;;;4.37;70.98;98099.95;232542;1193;138269;-72
2023/02/02 00:53:13;;;;;;;4.00;1.90;;;;;;;4.32;70.67;98099.30;232184;1196;138971;-74
2023/02/02 00:58:16;;;;;;;4.10;1.80;;;;;;;4.32;70.66;98097.73;235331;1193;138997;-72
2023/02/02 01:03:19;;;;;;;3.40;1.80;;;;;;;4.27;70.53;98108.90;234972;1192;138454;-71
2023/02/02 01:08:23;;;;;;;3.20;1.90;;;;;;;4.16;70.31;98115.23;235631;1193;138255;-72
2023/02/02 01:13:26;;;;;;;3.30;1.80;;;;;;;4.03;70.65;98120.45;234772;1192;140805;-71
2023/02/02 01:18:31;;;;;;;2.60;1.40;;;;;;;3.91;70.92;98117.88;233492;1193;139245;-72
2023/02/02 01:23:36;;;;;;;3.10;1.50;;;;;;;3.86;70.84;98121.30;234148;1192;139391;-71
2023/02/02 01:28:40;;;;;;;2.70;1.70;;;;;;;3.90;71.23;98123.58;235289;1193;140054;-71
2023/02/02 01:33:45;;;;;;;2.70;1.60;;;;;;;3.91;70.92;98122.09;235427;1193;138606;-72
2023/02/02 01:38:49;;;;;;;3.40;1.60;;;;;;;3.91;70.87;98132.30;235550;1192;139361;-71
2023/02/02 01:43:58;;;;;;;4.90;2.00;;;;;;;3.85;71.05;98131.02;235652;1191;138885;-72
2023/02/02 01:49:06;;;;;;;2.40;1.50;;;;;;;3.83;70.86;98139.01;232390;1193;139933;-73
2023/02/02 01:54:16;;;;;;;3.00;1.60;;;;;;;3.78;71.44;98140.84;233337;1192;140024;-71
2023/02/02 01:59:19;;;;;;;2.30;1.70;;;;;;;3.75;71.40;98140.81;235292;1193;138590;-71
2023/02/02 02:04:24;;;;;;;3.80;1.80;;;;;;;3.79;71.71;98145.67;234941;1193;138876;-72
2023/02/02 02:09:27;;;;;;;4.20;2.00;;;;;;;3.80;71.44;98151.05;235219;1194;140056;-72
2023/02/02 02:31:38;;;;;;;4.00;2.10;;;;;;;3.82;71.69;98170.79;233269;1194;139194;-72
2023/02/02 02:36:53;;;;;;;3.30;2.00;;;;;;;3.81;72.05;98176.30;233224;1198;138256;-71
2023/02/02 02:42:03;;;;;;;3.10;1.50;;;;;;;3.82;72.17;98180.30;235002;1193;138602;-72
2023/02/02 02:47:08;;;;;;;3.40;2.20;;;;;;;3.82;72.09;98186.57;235266;1193;140679;-72
2023/02/02 02:52:11;;;;;;;5.20;2.40;;;;;;;3.92;72.17;98194.89;234471;1195;138999;-71
2023/02/02 02:57:17;;;;;;;4.30;2.40;;;;;;;3.91;71.99;98207.77;234509;1193;138384;-72
2023/02/02 03:02:40;;;;;;;4.80;2.90;;;;;;;3.88;72.04;98216.10;234191;1194;138777;-74
2023/02/02 03:07:51;;;;;;;8.40;3.10;;;;;;;3.87;72.31;98214.75;230476;1193;139490;-74
2023/02/02 03:12:55;;;;;;;7.10;2.20;;;;;;;3.89;72.09;98218.89;234764;1193;138260;-72
2023/02/02 03:17:58;;;;;;;5.30;2.30;;;;;;;3.87;72.01;98213.88;235178;1193;139387;-73
2023/02/02 03:23:02;;;;;;;4.40;2.50;;;;;;;3.95;72.07;98223.52;233667;1195;139227;-73
2023/02/02 03:28:06;;;;;;;6.40;2.70;;;;;;;4.01;71.87;98231.29;235029;1193;139289;-73
2023/02/02 03:33:11;;;;;;;4.90;3.00;;;;;;;3.99;71.78;98234.56;235013;1193;138454;-73
2023/02/02 03:46:21;;;;;;;5.70;3.00;;;;;;;4.06;71.86;98243.55;235269;1193;138862;-73
2023/02/02 03:51:25;;;;;;;7.30;3.10;;;;;;;4.08;71.44;98244.82;235294;1193;138883;-73
2023/02/02 03:56:28;;;;;;;7.30;3.50;;;;;;;4.16;71.74;98241.27;234744;1193;139691;-72
2023/02/02 04:09:09;;;;;;;6.80;3.60;;;;;;;4.16;71.50;98233.75;235356;1193;138557;-72
2023/02/02 04:14:13;;;;;;;7.50;3.90;;;;;;;4.15;71.42;98239.20;234264;1195;138634;-71
2023/02/02 04:19:16;;;;;;;6.60;3.60;;;;;;;4.09;71.38;98238.81;235316;1193;138464;-71
2023/02/02 04:24:20;;;;;;;6.80;3.10;;;;;;;4.12;71.73;98231.30;234052;1197;139512;-73
2023/02/02 04:29:25;;;;;;;8.20;3.20;;;;;;;4.18;71.56;98228.55;233730;1193;139157;-72
2023/02/02 04:34:28;;;;;;;7.70;3.40;;;;;;;4.25;71.56;98238.52;233262;1196;138205;-72
2023/02/02 04:39:31;;;;;;;7.30;3.30;;;;;;;4.26;71.53;98238.83;234155;1195;138447;-71
2023/02/02 04:44:35;;;;;;;6.40;2.90;;;;;;;4.18;71.50;98245.75;235175;1193;139031;-72
2023/02/02 04:49:38;;;;;;;6.20;3.10;;;;;;;4.07;71.87;98245.22;232790;1193;138169;-71
2023/02/02 04:54:42;;;;;;;9.00;3.50;;;;;;;4.09;71.78;98249.70;233817;1196;138971;-72
2023/02/02 04:59:45;;;;;;;8.10;3.60;;;;;;;4.20;71.77;98246.88;235258;1193;138856;-72
2023/02/02 05:04:48;;;;;;;8.30;3.40;;;;;;;4.23;71.63;98243.52;232974;1193;139431;-72
2023/02/02 05:09:51;;;;;;;8.60;3.60;;;;;;;4.25;71.47;98245.76;235283;1193;138490;-72
2023/02/02 05:14:55;;;;;;;10.50;3.50;;;;;;;4.29;71.45;98245.90;234744;1193;138658;-73
2023/02/02 05:20:01;;;;;;;11.60;3.80;;;;;;;4.34;71.31;98254.45;233206;1197;138813;-71
2023/02/02 05:25:07;;;;;;;9.70;3.70;;;;;;;4.28;71.17;98254.70;233749;1196;138500;-72
2023/02/02 05:30:12;;;;;;;10.20;3.30;;;;;;;4.34;71.50;98256.56;233227;1193;139223;-71
2023/02/02 05:35:15;;;;;;;8.80;3.40;;;;;;;4.44;71.42;98254.81;233417;1195;139330;-73
2023/02/02 05:40:18;;;;;;;9.30;3.20;;;;;;;4.51;71.13;98248.50;232750;1195;140579;-73
2023/02/02 05:45:22;;;;;;;12.20;3.60;;;;;;;4.51;70.69;98246.52;231547;1198;140403;-71
2023/02/02 05:50:26;;;;;;;7.00;2.70;;;;;;;4.50;70.92;98251.51;234803;1195;138803;-72
2023/02/02 05:55:37;;;;;;;10.00;3.30;;;;;;;4.48;70.61;98250.58;235314;1193;138303;-71
2023/02/02 06:00:40;;;;;;;7.10;2.30;;;;;;;4.44;70.86;98252.88;232236;1198;138828;-71
2023/02/02 06:05:43;;;;;;;7.20;3.10;;;;;;;4.47;70.78;98244.09;235102;1197;139205;-73
2023/02/02 06:10:47;;;;;;;8.20;2.80;;;;;;;4.52;70.40;98243.00;235143;1193;139771;-71
2023/02/02 06:15:50;;;;;;;7.70;2.80;;;;;;;4.57;70.11;98235.03;235120;1193;139800;-71
2023/02/02 06:20:57;;;;;;;7.80;3.10;;;;;;;4.59;70.08;98231.61;234022;1193;139331;-73
2023/02/02 06:26:02;;;;;;;11.10;3.20;;;;;;;4.58;69.57;98232.89;235285;1195;138298;-72
2023/02/02 06:31:08;;;;;;;8.10;3.30;;;;;;;4.54;69.55;98230.64;235017;1193;138889;-72
2023/02/02 06:36:11;;;;;;;10.10;3.40;;;;;;;4.54;68.98;98235.54;235152;1193;138657;-72
2023/02/02 06:41:14;;;;;;;8.60;3.20;;;;;;;4.56;68.89;98222.42;235298;1193;139274;-72
2023/02/02 06:46:18;;;;;;;8.70;3.00;;;;;;;4.64;67.81;98215.66;235283;1197;138896;-71
2023/02/02 06:51:21;;;;;;;6.90;2.60;;;;;;;4.71;67.73;98221.14;235138;1193;138599;-71
2023/02/02 06:56:25;;;;;;;8.40;2.80;;;;;;;4.74;67.23;98225.89;235199;1193;138570;-72
2023/02/02 07:01:28;;;;;;;8.20;3.00;;;;;;;4.72;67.11;98225.83;235298;1193;138657;-72
2023/02/02 07:06:32;;;;;;;7.70;2.60;;;;;;;4.67;66.95;98224.31;235169;1196;138146;-73
2023/02/02 07:11:35;;;;;;;8.10;2.80;;;;;;;4.72;66.92;98224.42;235055;1198;138441;-73
2023/02/02 07:16:47;;;;;;;8.00;3.00;;;;;;;4.70;66.74;98226.28;233802;1197;138837;-72
2023/02/02 07:21:50;;;;;;;7.30;2.60;;;;;;;4.69;67.05;98225.80;235138;1193;139814;-73
2023/02/02 07:26:53;;;;;;;6.20;1.90;;;;;;;4.71;66.82;98229.90;235092;1193;139368;-72
2023/02/02 07:31:57;;;;;;;9.30;2.40;;;;;;;4.65;66.94;98232.33;232954;1195;138488;-72
2023/02/02 07:37:01;;;;;;;5.40;1.90;;;;;;;4.60;67.04;98233.30;230505;1198;138395;-71
2023/02/02 07:42:07;;;;;;;6.90;2.30;;;;;;;4.56;67.67;98230.48;235156;1193;139270;-71
2023/02/02 07:47:11;;;;;;;5.40;2.20;;;;;;;4.51;67.25;98233.39;235036;1193;141463;-72
2023/02/02 07:52:14;;;;;;;6.70;2.10;;;;;;;4.47;67.46;98234.97;233277;1195;138700;-72
2023/02/02 07:57:18;;;;;;;4.00;1.70;;;;;;;4.43;67.76;98222.54;234450;1197;138198;-74
2023/02/02 08:02:24;;;;;;;8.90;2.30;;;;;;;4.38;68.42;98221.73;233399;1197;138419;-74
2023/02/02 08:07:28;;;;;;;6.10;1.80;;;;;;;4.28;69.24;98219.42;233835;1194;138632;-73
2023/02/02 08:12:33;;;;;;;9.20;2.20;;;;;;;4.23;69.80;98222.66;233206;1193;139174;-71
2023/02/02 08:17:37;;;;;;;;;;;;;;;4.19;70.24;98210.39;233670;1195;138766;-71
2023/02/02 08:22:41;;;;;;;7.30;2.60;;;;;;;4.12;70.99;98212.16;232274;1193;125012;-72
2023/02/02 08:27:44;;;;;;;4.70;2.10;;;;;;;3.99;71.28;98228.02;235234;1193;138433;-73
2023/02/02 08:32:47;;;;;;;9.60;2.40;;;;;;;3.92;71.76;98223.50;232414;1193;139731;-74
2023/02/02 08:37:52;;;;;;;7.90;2.40;;;;;;;3.84;71.75;98215.63;232525;1198;138171;-73
2023/02/02 08:42:56;;;;;;;7.00;2.30;;;;;;;3.81;71.89;98217.02;233004;1193;138820;-71
2023/02/02 08:48:00;;;;;;;9.20;2.80;;;;;;;3.77;72.21;98218.24;234529;1198;138573;-71
2023/02/02 08:53:14;;;;;;;5.40;2.30;;;;;;;3.76;72.64;98211.78;233569;1198;139142;-72
2023/02/02 08:58:17;;;;;;;5.80;2.30;;;;;;;3.73;72.60;98207.02;234460;1193;138305;-72
2023/02/02 09:03:20;;;;;;;7.40;2.30;;;;;;;3.66;73.10;98211.73;232622;1193;138269;-72
2023/02/02 09:08:24;;;;;;;8.80;2.20;;;;;;;3.58;73.54;98209.16;235103;1193;139133;-72
2023/02/02 09:13:27;;;;;;;7.60;2.50;;;;;;;3.65;73.47;98203.01;232926;1193;138858;-71
2023/02/02 09:18:31;;;;;;;8.40;3.00;;;;;;;3.68;73.70;98204.81;234052;1197;138560;-71
2023/02/02 09:23:37;;;;;;;9.70;2.70;;;;;;;3.64;73.85;98213.23;233753;1193;138280;-71
2023/02/02 09:28:41;;;;;;;;;;;;;;;3.67;73.86;98208.91;235188;1194;138490;-71
2023/02/02 09:33:45;;;;;;;7.90;2.60;;;;;;;3.70;73.91;98212.43;235304;1193;126289;-71
2023/02/02 09:38:51;;;;;;;7.90;2.70;;;;;;;3.74;74.35;98214.67;235232;1198;238060;-71
2023/02/02 09:44:09;;;;;;;8.10;2.60;;;;;;;3.75;73.63;98216.95;229734;1199;138546;-70
2023/02/02 09:49:20;;;;;;;5.80;2.40;;;;;;;3.73;73.99;98220.20;229062;1199;139997;-75
2023/02/02 09:54:33;;;;;;;6.40;2.10;;;;;;;3.73;74.03;98233.52;232377;1196;138822;-74
2023/02/02 09:59:40;;;;;;;7.70;2.30;;;;;;;3.71;74.24;98240.27;230454;1198;138743;-74
2023/02/02 10:04:49;;;;;;;5.30;2.20;;;;;;;3.64;74.12;98241.31;229828;1198;138598;-74
2023/02/02 10:10:35;;;;;;;7.80;2.60;;;;;;;3.59;74.06;98251.52;229741;1198;138523;-74
2023/02/02 10:15:51;;;;;;;5.90;2.80;;;;;;;3.57;74.31;98253.58;229260;1199;140150;-75
2023/02/02 10:21:19;;;;;;;7.20;2.90;;;;;;;3.53;74.52;98254.77;230532;1198;138906;-74
2023/02/02 10:26:36;;;;;;;4.60;2.60;;;;;;;3.49;74.54;98256.22;229317;1199;139310;-76
2023/02/02 10:32:23;;;;;;;6.50;2.70;;;;;;;3.44;74.90;98270.27;228919;1199;138942;-74
2023/02/02 10:37:41;;;;;;;4.80;2.20;;;;;;;3.40;75.19;98256.81;230678;1199;140078;-75
2023/02/02 10:48:19;;;;;;;5.10;2.30;;;;;;;3.45;74.82;98276.38;230461;1198;138409;-74
2023/02/02 10:53:27;;;;;;;5.90;2.70;;;;;;;3.49;74.91;98269.52;229617;1200;138716;-76
2023/02/02 10:58:42;;;;;;;7.20;2.80;;;;;;;3.51;74.71;98277.13;233051;1199;138632;-74
2023/02/02 11:03:45;;;;;;;6.40;2.90;;;;;;;3.56;74.98;98282.35;233439;1193;139459;-74
2023/02/02 11:08:55;;;;;;;6.70;2.80;;;;;;;3.62;74.82;98290.50;235086;1197;138973;-76
2023/02/02 11:14:10;;;;;;;6.60;3.00;;;;;;;3.69;74.98;98293.35;230396;1196;138647;-73
2023/02/02 11:19:16;;;;;;;4.70;2.90;;;;;;;3.74;74.77;98300.15;232207;1198;138721;-75
2023/02/02 11:24:22;;;;;;;10.80;3.10;;;;;;;3.78;75.21;98297.85;229666;1196;139154;-73
2023/02/02 11:30:03;;;;;;;5.80;3.30;;;;;;;3.95;74.80;98296.70;231605;1196;141389;-73
2023/02/02 11:35:07;;;;;;;8.70;3.80;;;;;;;4.06;74.66;98297.92;230265;1199;138852;-72
2023/02/02 11:40:27;;;;;;;7.90;3.50;;;;;;;4.05;74.83;98303.75;229879;1193;138658;-71
2023/02/02 11:45:38;;;;;;;7.10;2.90;;;;;;;4.08;74.70;98307.67;229854;1196;140591;-72
2023/02/02 11:50:48;;;;;;;6.20;3.60;;;;;;;4.18;74.51;98309.80;229542;1199;139147;-74
2023/02/02 11:55:53;;;;;;;5.40;3.20;;;;;;;4.33;74.30;98318.06;231180;1196;139639;-74
2023/02/02 12:01:02;;;;;;;8.60;4.10;;;;;;;4.38;74.10;98313.40;233175;1196;138349;-74
2023/02/02 12:06:33;;;;;;;8.80;3.80;;;;;;;4.46;73.97;98316.87;229746;1196;138816;-72
2023/02/02 12:12:03;;;;;;;8.40;3.40;;;;;;;4.48;73.48;98329.61;231517;1193;138968;-73
2023/02/02 12:17:24;;;;;;;5.00;2.60;;;;;;;4.55;73.05;98339.96;228763;1196;138929;-73
2023/02/02 12:22:31;;;;;;;5.70;3.00;;;;;;;4.63;72.61;98354.33;230890;1193;138854;-73
2023/02/02 12:27:49;;;;;;;7.60;3.40;;;;;;;4.62;72.30;98355.79;230404;1196;138315;-73
2023/02/02 12:33:13;;;;;;;4.90;3.10;;;;;;;4.57;72.30;98365.86;231827;1198;138516;-73
2023/02/02 12:38:30;;;;;;;6.60;3.30;;;;;;;4.62;72.38;98375.98;229682;1196;140125;-73
2023/02/02 12:43:43;;;;;;;6.50;3.10;;;;;;;4.64;71.54;98383.48;229091;1197;139883;-72
2023/02/02 12:49:26;;;;;;;5.30;2.30;;;;;;;4.61;71.74;98386.94;233007;1193;138205;-71
2023/02/02 12:54:36;;;;;;;5.20;2.40;;;;;;;4.62;70.50;98399.02;231339;1193;138456;-73
2023/02/02 13:00:07;;;;;;;5.80;2.90;;;;;;;4.56;70.37;98409.50;235393;1192;138783;-73
2023/02/02 13:05:46;;;;;;;7.20;3.20;;;;;;;4.61;69.80;98418.04;235337;1192;138803;-71
2023/02/02 13:11:28;;;;;;;6.50;3.00;;;;;;;4.68;69.37;98429.84;235221;1193;138618;-71
2023/02/02 13:16:34;;;;;;;7.20;3.30;;;;;;;4.71;68.44;98437.59;234036;1193;138377;-75
2023/02/02 13:21:41;;;;;;;5.00;2.50;;;;;;;4.70;68.45;98437.83;229932;1195;138408;-71
2023/02/02 13:26:46;;;;;;;8.70;2.60;;;;;;;4.65;68.88;98447.02;233315;1199;138645;-72
2023/02/02 13:31:59;;;;;;;7.20;3.00;;;;;;;4.76;68.63;98454.73;235238;1193;139038;-72
2023/02/02 13:37:40;;;;;;;7.60;3.70;;;;;;;4.91;67.73;98459.10;235391;1195;139065;-72
2023/02/02 13:43:10;;;;;;;9.50;2.80;;;;;;;5.01;66.86;98465.84;235338;1196;138322;-72
2023/02/02 13:48:26;;;;;;;5.70;2.90;;;;;;;5.12;66.93;98472.36;235294;1193;138378;-73
2023/02/02 13:54:02;;;;;;;6.70;2.90;;;;;;;5.14;66.60;98484.02;229891;1197;138615;-73
2023/02/02 13:59:05;;;;;;;;;;;;;;;5.18;66.72;98497.36;235202;1195;138662;-73
2023/02/02 14:04:25;;;;;;;6.90;3.00;;;;;;;5.16;66.31;98506.08;234647;1193;126123;-73
2023/02/02 14:09:31;;;;;;;4.30;2.30;;;;;;;5.15;65.59;98519.82;234632;1193;138606;-72
2023/02/02 14:14:38;;;;;;;4.90;2.20;;;;;;;5.17;65.70;98535.21;233599;1193;139152;-72
2023/02/02 14:19:42;;;;;;;7.20;3.30;;;;;;;5.17;65.36;98534.67;234635;1193;139030;-75
2023/02/02 14:24:52;;;;;;;5.10;3.10;;;;;;;5.26;65.11;98527.39;229388;1193;138836;-73
2023/02/02 14:29:55;;;;;;;6.30;3.10;;;;;;;5.23;65.25;98550.23;231439;1196;138793;-74
2023/02/02 14:35:12;;;;;;;7.50;3.60;;;;;;;5.20;64.86;98569.33;229267;1194;138896;-75
2023/02/02 14:40:34;;;;;;;6.20;2.90;;;;;;;5.26;65.15;98582.81;229361;1198;138724;-73
2023/02/02 14:45:42;;;;;;;7.70;3.80;;;;;;;5.30;64.88;98593.17;230793;1196;138596;-75
2023/02/02 14:50:52;;;;;;;5.20;2.80;;;;;;;5.30;64.47;98602.29;230595;1198;138576;-74
2023/02/02 14:56:14;;;;;;;5.90;3.10;;;;;;;5.31;64.60;98606.27;231191;1193;139024;-74
2023/02/02 15:01:21;;;;;;;5.30;2.70;;;;;;;5.34;64.11;98617.05;229583;1198;139383;-74
2023/02/02 15:06:39;;;;;;;7.60;3.20;;;;;;;5.37;64.06;98628.71;231277;1196;138787;-74
2023/02/02 15:11:58;;;;;;;7.00;3.60;;;;;;;5.46;63.67;98635.48;231461;1196;138730;-75
2023/02/02 15:17:11;;;;;;;11.70;3.70;;;;;;;5.54;63.10;98640.37;229901;1193;138692;-74
2023/02/02 15:22:28;;;;;;;8.10;3.80;;;;;;;5.51;62.68;98652.30;230269;1193;140058;-73
2023/02/02 15:27:33;;;;;;;8.80;3.30;;;;;;;5.43;62.55;98664.45;230736;1197;138545;-72
2023/02/02 15:32:41;;;;;;;9.10;3.00;;;;;;;5.36;62.59;98669.02;230924;1194;138740;-73
2023/02/02 15:37:50;;;;;;;5.50;2.80;;;;;;;5.31;62.36;98682.80;231779;1196;139736;-73
2023/02/02 15:43:05;;;;;;;5.30;2.80;;;;;;;5.25;62.01;98696.98;231020;1196;138453;-73
2023/02/02 15:48:22;;;;;;;4.40;2.30;;;;;;;5.22;61.46;98704.31;230468;1193;138855;-73
2023/02/02 15:53:32;;;;;;;5.70;2.50;;;;;;;5.19;60.92;98720.09;231135;1193;138238;-72
2023/02/02 15:58:37;;;;;;;5.70;2.40;;;;;;;5.07;60.09;98734.19;230542;1193;138448;-72
2023/02/02 16:03:46;;;;;;;;;;;;;;;5.07;60.00;98744.77;230308;1198;138412;-73
2023/02/02 16:08:50;;;;;;;5.20;1.60;;;;;;;5.00;58.88;98754.38;232145;1198;124976;-73
2023/02/02 16:14:00;;;;;;;3.80;2.00;;;;;;;4.91;58.43;98758.06;230991;1198;138446;-74
2023/02/02 16:19:04;;;;;;;8.30;4.60;;;;;;;4.86;58.69;98773.07;233024;1196;138324;-73
2023/02/02 16:24:15;;;;;;;4.10;1.70;;;;;;;4.84;58.52;98780.34;235161;1195;138692;-71
2023/02/02 16:29:19;;;;;;;5.00;1.70;;;;;;;4.86;58.69;98797.68;235149;1195;138357;-72
2023/02/02 16:34:41;;;;;;;4.10;1.80;;;;;;;4.91;58.37;98804.15;235238;1194;138336;-69
2023/02/02 16:39:45;;;;;;;3.50;2.00;;;;;;;4.93;58.62;98819.17;232166;1196;138920;-68
2023/02/02 16:44:49;;;;;;;6.30;2.40;;;;;;;4.94;58.63;98829.67;231655;1196;138595;-73
2023/02/02 16:50:08;;;;;;;7.00;2.90;;;;;;;4.94;58.73;98840.55;228894;1199;138808;-71
2023/02/02 16:55:16;;;;;;;6.00;2.70;;;;;;;4.96;58.98;98857.89;234504;1193;138259;-68
2023/02/02 17:00:22;;;;;;;5.50;2.90;;;;;;;5.04;58.48;98863.90;234066;1193;139614;-71
2023/02/02 17:05:32;;;;;;;8.00;2.90;;;;;;;5.03;57.94;98860.08;232654;1196;138479;-69
2023/02/02 17:10:41;;;;;;;4.70;2.60;;;;;;;4.95;57.36;98863.03;232879;1196;139445;-69
2023/02/02 17:15:51;;;;;;;5.10;2.60;;;;;;;4.87;57.27;98874.29;231378;1196;139730;-71
2023/02/02 17:20:57;;;;;;;6.20;3.00;;;;;;;4.81;57.28;98883.85;232056;1198;139116;-72
2023/02/02 17:26:02;;;;;;;7.90;2.80;;;;;;;4.79;56.95;98899.23;229964;1193;138419;-71
2023/02/02 17:31:09;;;;;;;6.90;2.90;;;;;;;4.66;56.80;98903.79;230788;1194;138483;-72
2023/02/02 17:36:13;;;;;;;7.60;3.30;;;;;;;4.61;56.88;98909.64;230086;1194;138520;-70
2023/02/02 17:41:16;;;;;;;5.10;2.70;;;;;;;4.57;57.21;98924.87;229476;1199;138726;-70
2023/02/02 17:46:20;;;;;;;5.50;3.00;;;;;;;4.56;57.17;98936.86;231735;1196;138420;-71
2023/02/02 17:51:24;;;;;;;6.40;2.80;;;;;;;4.57;57.28;98949.64;230169;1196;138685;-71
2023/02/02 17:56:27;;;;;;;6.00;3.00;;;;;;;4.56;57.74;98961.82;232414;1193;139464;-71
2023/02/02 18:01:31;;;;;;;6.70;3.10;;;;;;;4.57;57.46;98962.66;232350;1193;138433;-70
2023/02/02 18:06:36;;;;;;;5.50;3.00;;;;;;;4.60;57.88;98968.54;229790;1196;138547;-72
2023/02/02 18:11:40;;;;;;;6.20;2.80;;;;;;;4.58;57.43;98981.77;229316;1196;139570;-71
2023/02/02 18:16:44;;;;;;;5.90;2.80;;;;;;;4.50;57.68;98990.15;234481;1193;138559;-71
2023/02/02 18:21:48;;;;;;;6.50;3.20;;;;;;;4.53;57.69;98987.77;230651;1193;138320;-72
2023/02/02 18:26:51;;;;;;;6.40;2.70;;;;;;;4.51;56.74;98999.39;231580;1193;138898;-73
2023/02/02 18:31:57;;;;;;;6.10;2.90;;;;;;;4.47;56.88;99004.81;230688;1195;138732;-73
2023/02/02 18:37:01;;;;;;;;;;;;;;;4.44;56.55;99012.16;232852;1193;138914;-69
2023/02/02 18:42:05;;;;;;;6.40;3.00;;;;;;;4.37;56.51;99019.29;229728;1196;125102;-71
2023/02/02 18:47:08;;;;;;;4.70;2.70;;;;;;;4.34;56.95;99031.33;231222;1193;138447;-70
2023/02/02 18:52:11;;;;;;;8.90;3.50;;;;;;;4.33;56.72;99046.45;230511;1193;139219;-72
2023/02/02 18:57:15;;;;;;;12.00;6.40;;;;;;;4.37;56.97;99064.25;231393;1193;138392;-70
2023/02/02 19:02:19;;;;;;;7.30;3.10;;;;;;;4.40;56.92;99078.35;229204;1197;138698;-70
2023/02/02 19:13:20;;;;;;;5.10;2.80;;;;;;;4.36;56.77;99095.88;229519;1196;139066;-71
2023/02/02 19:18:24;;;;;;;7.20;3.60;;;;;;;4.28;57.08;99104.41;230171;1199;137970;-71
2023/02/02 19:23:31;;;;;;;5.80;3.10;;;;;;;4.29;57.16;99108.98;229304;1198;138226;-72
2023/02/02 19:28:34;;;;;;;5.40;3.00;;;;;;;4.24;57.24;99116.31;229288;1198;139169;-69
2023/02/02 19:33:42;;;;;;;7.00;3.30;;;;;;;4.22;57.35;99125.54;230023;1198;140738;-73
2023/02/02 19:38:48;;;;;;;7.00;3.50;;;;;;;4.15;57.82;99139.33;230130;1196;138641;-71
2023/02/02 19:43:57;;;;;;;5.30;3.00;;;;;;;4.06;58.31;99147.34;229830;1198;138872;-71
2023/02/02 19:49:11;;;;;;;7.70;3.80;;;;;;;4.06;58.49;99150.15;229868;1193;138304;-73
2023/02/02 19:54:33;;;;;;;8.60;4.30;;;;;;;4.14;59.02;99166.39;231296;1193;138507;-73
2023/02/02 19:59:37;;;;;;;5.90;3.30;;;;;;;4.10;59.29;99171.43;231564;1196;138684;-71
2023/02/02 20:04:40;;;;;;;7.70;3.70;;;;;;;4.06;59.52;99181.94;232653;1195;138328;-71
2023/02/02 20:09:44;;;;;;;9.40;4.30;;;;;;;4.01;59.75;99192.05;232233;1195;138512;-74
2023/02/02 20:14:47;;;;;;;7.30;3.60;;;;;;;4.06;59.52;99200.70;229216;1198;138706;-70
2023/02/02 20:19:51;;;;;;;8.70;4.00;;;;;;;4.01;60.03;99216.64;233017;1196;138748;-71
2023/02/02 20:24:56;;;;;;;8.70;3.90;;;;;;;3.89;62.69;99226.36;229360;1193;138138;-70
2023/02/02 20:30:22;;;;;;;5.10;2.90;;;;;;;3.69;63.45;99239.79;229131;1197;139349;-70
2023/02/02 20:35:31;;;;;;;8.10;3.70;;;;;;;3.54;64.07;99253.21;231592;1194;138952;-70
2023/02/02 20:40:34;;;;;;;10.60;4.70;;;;;;;3.64;64.74;99266.77;230041;1194;138954;-68
2023/02/02 20:45:38;;;;;;;6.90;3.70;;;;;;;3.71;64.98;99274.66;232524;1195;139342;-70
2023/02/02 20:50:42;;;;;;;9.40;4.60;;;;;;;3.60;65.30;99282.70;233073;1194;138188;-71
2023/02/02 20:55:45;;;;;;;7.40;4.30;;;;;;;3.61;65.41;99292.83;233840;1193;139130;-71
2023/02/02 21:00:49;;;;;;;8.90;4.70;;;;;;;3.64;65.52;99302.75;230831;1193;138483;-70
2023/02/02 21:05:53;;;;;;;9.60;4.40;;;;;;;3.62;65.72;99307.18;232130;1198;138831;-71
2023/02/02 21:10:56;;;;;;;7.30;3.80;;;;;;;3.61;66.11;99308.82;230382;1196;139233;-70
2023/02/02 21:15:59;;;;;;;8.50;4.20;;;;;;;3.61;65.83;99315.30;228994;1199;139790;-70
2023/02/02 21:21:03;;;;;;;8.90;4.20;;;;;;;3.59;65.32;99321.67;232163;1195;138493;-72
2023/02/02 21:26:06;;;;;;;9.80;4.50;;;;;;;3.55;65.06;99328.25;228794;1199;139300;-72
2023/02/02 21:31:12;;;;;;;8.00;3.80;;;;;;;3.49;64.90;99333.16;228993;1198;138835;-70
2023/02/02 21:36:33;;;;;;;9.80;4.30;;;;;;;3.49;65.18;99344.73;231047;1193;139095;-71
2023/02/02 21:41:36;;;;;;;8.60;3.40;;;;;;;3.61;65.19;99347.58;235377;1193;138722;-70
2023/02/02 21:46:40;;;;;;;6.70;3.30;;;;;;;3.60;65.00;99357.10;234185;1193;139492;-71
2023/02/02 21:51:44;;;;;;;6.10;2.70;;;;;;;3.64;65.19;99360.46;229876;1198;139769;-71
2023/02/02 21:56:48;;;;;;;5.60;3.20;;;;;;;3.75;65.17;99362.77;231724;1193;138711;-71
2023/02/02 22:01:51;;;;;;;6.00;3.30;;;;;;;3.85;64.97;99372.13;232311;1196;138303;-71
2023/02/02 22:07:11;;;;;;;6.80;3.50;;;;;;;3.86;64.56;99383.86;229598;1198;138490;-72
2023/02/02 22:12:26;;;;;;;7.40;3.70;;;;;;;3.93;64.31;99390.34;230689;1193;138727;-71
2023/02/02 22:17:40;;;;;;;9.10;4.00;;;;;;;3.93;63.99;99402.98;229308;1193;138551;-69
2023/02/02 22:22:45;;;;;;;7.00;3.70;;;;;;;3.93;63.48;99409.63;231172;1193;138398;-71
2023/02/02 22:27:57;;;;;;;7.50;3.90;;;;;;;3.88;63.40;99415.92;232908;1196;139413;-72
2023/02/02 22:33:02;;;;;;;9.40;3.90;;;;;;;3.83;63.54;99423.09;228669;1197;138595;-73
2023/02/02 22:38:07;;;;;;;7.80;3.80;;;;;;;3.80;63.26;99428.79;231097;1196;139484;-71
2023/02/02 22:43:12;;;;;;;6.70;3.90;;;;;;;3.75;63.22;99418.05;230181;1193;138498;-70
2023/02/02 22:48:16;;;;;;;10.30;4.40;;;;;;;3.72;63.38;99422.54;231717;1193;138767;-70
2023/02/02 22:53:19;;;;;;;7.80;4.00;;;;;;;3.75;63.35;99435.59;231887;1193;138975;-69
2023/02/02 22:58:24;;;;;;;8.10;4.10;;;;;;;3.72;63.15;99447.27;230604;1193;138294;-71
2023/02/02 23:03:27;;;;;;;9.00;4.50;;;;;;;3.60;63.39;99452.33;234276;1193;138789;-70
2023/02/02 23:08:31;;;;;;;8.80;4.30;;;;;;;3.58;64.15;99464.48;230111;1193;138446;-71
2023/02/02 23:13:34;;;;;;;8.40;4.00;;;;;;;3.60;64.75;99467.27;235615;1193;138307;-70
2023/02/02 23:18:37;;;;;;;7.90;3.40;;;;;;;3.56;65.17;99465.05;234065;1193;138968;-68
2023/02/02 23:23:41;;;;;;;7.20;3.60;;;;;;;3.63;65.51;99467.67;232552;1195;138787;-70
2023/02/02 23:28:44;;;;;;;8.60;3.70;;;;;;;3.74;65.32;99467.56;230900;1198;139002;-68
2023/02/02 23:33:48;;;;;;;7.80;3.90;;;;;;;3.77;65.03;99482.39;231291;1196;138212;-71
2023/02/02 23:38:51;;;;;;;5.40;3.50;;;;;;;3.76;65.26;99489.98;230882;1197;138783;-71
2023/02/02 23:43:55;;;;;;;6.10;3.30;;;;;;;3.79;64.82;99489.88;230866;1197;138834;-70
2023/02/02 23:48:59;;;;;;;6.80;3.30;;;;;;;3.72;64.96;99490.96;229814;1196;138358;-71
2023/02/02 23:54:03;;;;;;;6.30;3.60;;;;;;;3.63;64.59;99502.77;230410;1193;138453;-71
2023/02/02 23:59:07;;;;;;;7.40;3.20;;;;;;;3.63;64.77;99506.98;231689;1198;138741;-71
